createdAt,value
2018-06-25T00:00:00.439Z,1.50
2018-06-25T00:02:29.528Z,1.50
2018-06-25T00:04:58.624Z,1.80
2018-06-25T00:07:27.713Z,1.77
2018-06-25T00:09:57.061Z,1.90
2018-06-25T00:12:26.395Z,2.13
2018-06-25T00:14:55.756Z,1.80
2018-06-25T00:17:25.078Z,1.93
2018-06-25T00:19:54.392Z,1.60
2018-06-25T00:22:23.701Z,1.70
2018-06-25T00:24:53.007Z,1.70
2018-06-25T00:27:22.309Z,1.90
2018-06-25T00:29:51.828Z,1.73
2018-06-25T00:32:20.916Z,1.92
2018-06-25T00:34:50.585Z,1.70
2018-06-25T00:37:19.903Z,1.70
2018-06-25T00:39:49.214Z,1.90
2018-06-25T00:42:18.528Z,1.60
2018-06-25T00:44:47.601Z,2.00
2018-06-25T00:47:16.904Z,2.00
2018-06-25T00:49:46.209Z,1.70
2018-06-25T00:52:15.528Z,1.80
2018-06-25T00:54:44.601Z,1.80
2018-06-25T00:57:13.920Z,2.20
2018-06-25T00:59:52.392Z,1.60
2018-06-25T01:02:22.056Z,1.53
2018-06-25T01:04:51.135Z,2.00
2018-06-25T01:07:20.585Z,2.10
2018-06-25T01:09:50.161Z,1.73
2018-06-25T01:12:20.335Z,1.77
2018-06-25T01:14:49.636Z,2.03
2018-06-25T01:17:18.951Z,1.93
2018-06-25T01:19:48.264Z,1.70
2018-06-25T01:22:17.332Z,2.00
2018-06-25T01:24:46.652Z,2.10
2018-06-25T01:27:15.961Z,1.73
2018-06-25T01:29:45.034Z,1.63
2018-06-25T01:32:14.353Z,1.80
2018-06-25T01:34:43.655Z,1.73
2018-06-25T01:37:12.734Z,2.00
2018-06-25T01:39:42.031Z,1.90
2018-06-25T01:42:11.359Z,2.27
2018-06-25T01:44:40.412Z,2.00
2018-06-25T01:47:09.729Z,1.40
2018-06-25T01:49:39.041Z,1.80
2018-06-25T01:52:08.672Z,2.20
2018-06-25T01:54:37.979Z,1.80
2018-06-25T01:57:07.313Z,1.80
2018-06-25T01:59:36.613Z,2.13
2018-06-25T02:02:05.935Z,1.98
2018-06-25T02:04:35.259Z,1.80
2018-06-25T02:07:04.565Z,2.10
2018-06-25T02:09:33.644Z,2.10
2018-06-25T02:12:02.955Z,2.10
2018-06-25T02:14:32.284Z,2.10
2018-06-25T02:17:01.601Z,2.00
2018-06-25T02:19:30.916Z,2.10
2018-06-25T02:22:00.230Z,1.77
2018-06-25T02:24:29.577Z,2.20
2018-06-25T02:26:58.881Z,2.00
2018-06-25T02:29:28.192Z,1.97
2018-06-25T02:31:57.509Z,2.17
2018-06-25T02:34:26.833Z,1.90
2018-06-25T02:36:56.143Z,1.90
2018-06-25T02:39:25.449Z,2.27
2018-06-25T02:41:54.521Z,2.23
2018-06-25T02:44:23.833Z,2.30
2018-06-25T02:46:53.200Z,2.13
2018-06-25T02:49:22.503Z,2.20
2018-06-25T02:51:51.801Z,2.07
2018-06-25T02:54:21.117Z,1.90
2018-06-25T02:56:50.438Z,2.00
2018-06-25T02:59:19.792Z,1.90
2018-06-25T03:01:49.083Z,2.00
2018-06-25T03:04:18.448Z,1.90
2018-06-25T03:06:47.513Z,2.17
2018-06-25T03:09:16.846Z,2.30
2018-06-25T03:11:45.933Z,1.87
2018-06-25T03:14:15.026Z,2.10
2018-06-25T03:16:44.360Z,2.40
2018-06-25T03:19:13.700Z,2.23
2018-06-25T03:21:43.023Z,2.57
2018-06-25T03:24:12.356Z,1.80
2018-06-25T03:26:41.675Z,2.00
2018-06-25T03:29:11.003Z,1.77
2018-06-25T03:31:40.319Z,2.33
2018-06-25T03:34:09.670Z,2.03
2018-06-25T03:36:38.999Z,2.17
2018-06-25T03:39:10.288Z,1.70
2018-06-25T03:41:39.380Z,2.13
2018-06-25T03:44:09.255Z,2.10
2018-06-25T03:46:38.590Z,2.30
2018-06-25T03:49:07.700Z,2.70
2018-06-25T03:51:37.039Z,2.30
2018-06-25T03:54:06.372Z,1.93
2018-06-25T03:56:35.701Z,2.67
2018-06-25T03:59:05.075Z,2.70
2018-06-25T04:01:34.463Z,2.50
2018-06-25T04:04:03.896Z,2.27
2018-06-25T04:06:33.219Z,2.47
2018-06-25T04:09:02.552Z,2.33
2018-06-25T04:11:31.872Z,2.77
2018-06-25T04:14:01.196Z,2.63
2018-06-25T04:16:30.285Z,2.60
2018-06-25T04:19:02.662Z,2.53
2018-06-25T04:21:32.786Z,2.50
2018-06-25T04:24:01.993Z,2.80
2018-06-25T04:26:31.621Z,2.80
2018-06-25T04:29:01.153Z,2.33
2018-06-25T04:31:30.833Z,2.58
2018-06-25T04:34:00.312Z,2.63
2018-06-25T04:36:29.453Z,2.57
2018-06-25T04:38:58.784Z,2.55
2018-06-25T04:41:28.121Z,2.98
2018-06-25T04:43:57.435Z,3.00
2018-06-25T04:46:26.763Z,2.77
2018-06-25T04:48:56.135Z,2.70
2018-06-25T04:51:25.468Z,2.73
2018-06-25T04:53:54.783Z,2.73
2018-06-25T04:56:24.104Z,2.60
2018-06-25T04:58:53.202Z,2.60
2018-06-25T05:01:22.291Z,2.60
2018-06-25T05:03:51.629Z,3.00
2018-06-25T05:06:20.952Z,2.87
2018-06-25T05:08:50.341Z,2.97
2018-06-25T05:11:19.396Z,2.50
2018-06-25T05:13:48.469Z,2.50
2018-06-25T05:16:17.785Z,2.70
2018-06-25T05:18:46.911Z,2.70
2018-06-25T05:21:19.885Z,2.50
2018-06-25T05:23:49.213Z,2.90
2018-06-25T05:26:18.551Z,2.90
2018-06-25T05:28:47.876Z,2.97
2018-06-25T05:31:16.950Z,2.80
2018-06-25T05:33:46.278Z,2.73
2018-06-25T05:36:15.736Z,2.93
2018-06-25T05:38:45.201Z,2.70
2018-06-25T05:41:14.541Z,2.70
2018-06-25T05:43:43.889Z,3.20
2018-06-25T05:46:13.215Z,2.50
2018-06-25T05:48:42.565Z,2.60
2018-06-25T05:51:11.888Z,2.80
2018-06-25T05:53:41.231Z,2.93
2018-06-25T05:56:10.581Z,3.03
2018-06-25T05:58:39.676Z,3.00
2018-06-25T06:01:08.764Z,2.57
2018-06-25T06:03:37.872Z,2.60
2018-06-25T06:06:07.989Z,2.73
2018-06-25T06:08:37.329Z,2.97
2018-06-25T06:11:06.685Z,2.53
2018-06-25T06:13:35.759Z,2.90
2018-06-25T06:16:05.107Z,2.90
2018-06-25T06:18:34.455Z,2.70
2018-06-25T06:21:03.776Z,3.30
2018-06-25T06:23:32.930Z,2.90
2018-06-25T06:26:02.269Z,3.10
2018-06-25T06:28:31.402Z,3.20
2018-06-25T06:31:00.983Z,2.73
2018-06-25T06:33:30.072Z,2.87
2018-06-25T06:35:59.413Z,3.03
2018-06-25T06:38:28.760Z,2.93
2018-06-25T06:40:58.082Z,3.50
2018-06-25T06:43:27.181Z,3.07
2018-06-25T06:45:56.526Z,2.93
2018-06-25T06:48:25.948Z,3.02
2018-06-25T06:50:55.279Z,3.23
2018-06-25T06:53:24.367Z,3.13
2018-06-25T06:55:53.447Z,3.10
2018-06-25T06:58:22.785Z,2.83
2018-06-25T07:00:52.116Z,3.33
2018-06-25T07:03:21.446Z,2.93
2018-06-25T07:05:50.774Z,2.83
2018-06-25T07:08:19.847Z,2.40
2018-06-25T07:10:49.169Z,2.47
2018-06-25T07:13:18.516Z,2.93
2018-06-25T07:15:47.836Z,3.07
2018-06-25T07:18:17.209Z,3.57
2018-06-25T07:20:46.579Z,2.87
2018-06-25T07:23:15.859Z,2.83
2018-06-25T07:25:45.219Z,2.77
2018-06-25T07:28:14.584Z,2.93
2018-06-25T07:30:43.924Z,2.90
2018-06-25T07:33:13.257Z,2.83
2018-06-25T07:35:42.597Z,3.33
2018-06-25T07:38:11.928Z,3.10
2018-06-25T07:40:41.261Z,3.25
2018-06-25T07:43:10.586Z,3.30
2018-06-25T07:45:39.944Z,3.10
2018-06-25T07:48:09.280Z,3.00
2018-06-25T07:50:38.640Z,2.57
2018-06-25T07:53:07.986Z,2.70
2018-06-25T07:55:37.314Z,2.60
2018-06-25T07:58:06.921Z,3.43
2018-06-25T08:00:36.253Z,3.60
2018-06-25T08:03:05.576Z,3.10
2018-06-25T08:05:34.663Z,2.73
2018-06-25T08:08:03.995Z,3.10
2018-06-25T08:10:33.348Z,3.00
2018-06-25T08:13:02.684Z,3.33
2018-06-25T08:15:31.763Z,2.83
2018-06-25T08:18:01.124Z,2.83
2018-06-25T08:20:30.546Z,2.40
2018-06-25T08:22:59.799Z,2.50
2018-06-25T08:25:29.084Z,2.47
2018-06-25T08:27:58.424Z,1.77
2018-06-25T08:30:27.747Z,2.20
2018-06-25T08:32:57.093Z,2.63
2018-06-25T08:35:26.440Z,2.30
2018-06-25T08:37:55.769Z,1.83
2018-06-25T08:40:24.850Z,1.82
2018-06-25T08:42:54.175Z,1.60
2018-06-25T08:45:23.267Z,1.70
2018-06-25T08:47:52.357Z,1.03
2018-06-25T08:50:21.687Z,1.27
2018-06-25T08:52:51.007Z,1.50
2018-06-25T08:55:20.362Z,2.13
2018-06-25T08:57:49.435Z,2.20
2018-06-25T09:00:18.825Z,2.30
2018-06-25T09:02:48.155Z,1.93
2018-06-25T09:05:17.262Z,2.70
2018-06-25T09:07:46.600Z,2.53
2018-06-25T09:10:15.927Z,2.00
2018-06-25T09:12:45.255Z,1.97
2018-06-25T09:15:14.354Z,2.00
2018-06-25T09:17:43.680Z,1.90
2018-06-25T09:20:13.015Z,1.93
2018-06-25T09:22:42.348Z,1.80
2018-06-25T09:25:11.429Z,1.70
2018-06-25T09:27:46.179Z,1.80
2018-06-25T09:30:15.636Z,1.57
2018-06-25T09:32:44.972Z,1.40
2018-06-25T09:35:14.072Z,1.80
2018-06-25T09:37:43.420Z,1.50
2018-06-25T09:40:12.735Z,1.60
2018-06-25T09:42:42.063Z,1.90
2018-06-25T09:45:12.205Z,1.90
2018-06-25T09:47:41.577Z,1.30
2018-06-25T09:50:10.912Z,1.37
2018-06-25T09:52:40.252Z,2.60
2018-06-25T09:55:09.661Z,2.00
2018-06-25T09:57:38.998Z,2.10
2018-06-25T10:00:09.136Z,1.55
2018-06-25T10:02:38.481Z,1.80
2018-06-25T10:05:07.819Z,1.80
2018-06-25T10:07:37.139Z,1.60
2018-06-25T10:10:06.509Z,0.90
2018-06-25T10:12:35.841Z,0.80
2018-06-25T10:15:05.200Z,0.80
2018-06-25T10:17:34.527Z,0.80
2018-06-25T10:20:03.607Z,0.60
2018-06-25T10:22:32.947Z,0.50
2018-06-25T10:25:02.268Z,0.50
2018-06-25T10:27:31.608Z,0.50
2018-06-25T10:30:00.937Z,0.50
2018-06-25T10:32:30.279Z,0.50
2018-06-25T10:34:59.628Z,0.40
2018-06-25T10:37:28.860Z,0.30
2018-06-25T10:39:58.189Z,0.50
2018-06-25T10:42:27.670Z,1.07
2018-06-25T10:44:56.928Z,0.57
2018-06-25T10:47:26.021Z,0.63
2018-06-25T10:49:55.352Z,0.60
2018-06-25T10:52:24.704Z,0.50
2018-06-25T10:54:54.012Z,0.50
2018-06-25T10:57:23.105Z,0.50
2018-06-25T10:59:52.540Z,0.27
2018-06-25T11:02:21.763Z,0.50
2018-06-25T11:04:51.113Z,0.50
2018-06-25T11:07:20.236Z,0.43
2018-06-25T11:09:49.531Z,0.40
2018-06-25T11:12:18.857Z,0.53
2018-06-25T11:14:48.193Z,0.60
2018-06-25T11:17:17.540Z,0.70
2018-06-25T11:19:46.894Z,0.50
2018-06-25T11:22:16.220Z,0.53
2018-06-25T11:24:45.299Z,0.57
2018-06-25T11:27:14.722Z,0.70
2018-06-25T11:29:43.976Z,0.67
2018-06-25T11:32:13.313Z,0.60
2018-06-25T11:34:42.439Z,0.70
2018-06-25T11:37:11.784Z,0.57
2018-06-25T11:39:41.119Z,0.63
2018-06-25T11:42:10.461Z,0.60
2018-06-25T11:44:39.803Z,0.70
2018-06-25T11:47:09.146Z,0.60
2018-06-25T11:49:38.476Z,0.70
2018-06-25T11:52:09.040Z,0.77
2018-06-25T11:54:38.176Z,0.87
2018-06-25T11:57:07.504Z,0.70
2018-06-25T11:59:36.835Z,0.73
2018-06-25T12:02:06.590Z,0.67
2018-06-25T12:04:35.907Z,0.60
2018-06-25T12:07:05.271Z,0.70
2018-06-25T12:09:34.614Z,0.50
2018-06-25T12:12:04.003Z,0.50
2018-06-25T12:14:33.280Z,0.63
2018-06-25T12:17:02.612Z,0.60
2018-06-25T12:19:31.941Z,0.70
2018-06-25T12:22:01.279Z,0.50
2018-06-25T12:24:30.620Z,0.63
2018-06-25T12:26:59.956Z,0.90
2018-06-25T12:29:29.052Z,0.80
2018-06-25T12:31:58.419Z,0.80
2018-06-25T12:34:27.806Z,1.20
2018-06-25T12:36:57.136Z,1.00
2018-06-25T12:39:26.527Z,0.80
2018-06-25T12:41:55.856Z,0.70
2018-06-25T12:44:24.956Z,0.80
2018-06-25T12:46:54.035Z,1.03
2018-06-25T12:49:23.385Z,0.90
2018-06-25T12:51:52.712Z,0.80
2018-06-25T12:54:22.062Z,0.60
2018-06-25T12:56:51.402Z,0.60
2018-06-25T12:59:20.734Z,0.63
2018-06-25T13:01:50.067Z,0.80
2018-06-25T13:04:19.391Z,0.90
2018-06-25T13:06:48.728Z,0.90
2018-06-25T13:09:18.064Z,0.77
2018-06-25T13:11:47.405Z,0.70
2018-06-25T13:14:16.747Z,0.90
2018-06-25T13:16:45.842Z,0.60
2018-06-25T13:19:15.161Z,0.53
2018-06-25T13:21:44.493Z,0.90
2018-06-25T13:24:13.816Z,0.62
2018-06-25T13:26:43.167Z,0.83
2018-06-25T13:29:12.503Z,0.80
2018-06-25T13:31:41.849Z,0.60
2018-06-25T13:34:10.931Z,0.90
2018-06-25T13:36:40.260Z,0.80
2018-06-25T13:39:10.373Z,0.70
2018-06-25T13:41:39.452Z,0.50
2018-06-25T13:44:09.039Z,0.60
2018-06-25T13:46:38.391Z,0.77
2018-06-25T13:49:07.756Z,0.90
2018-06-25T13:51:37.097Z,0.90
2018-06-25T13:54:06.440Z,0.77
2018-06-25T13:56:35.779Z,0.97
2018-06-25T13:59:05.124Z,0.80
2018-06-25T14:01:34.460Z,0.80
2018-06-25T14:04:03.800Z,0.60
2018-06-25T14:06:33.124Z,0.90
2018-06-25T14:09:02.479Z,0.70
2018-06-25T14:11:31.825Z,0.60
2018-06-25T14:14:01.171Z,0.73
2018-06-25T14:16:30.298Z,0.90
2018-06-25T14:18:59.599Z,0.80
2018-06-25T14:21:28.947Z,0.70
2018-06-25T14:24:03.602Z,1.07
2018-06-25T14:26:38.004Z,0.80
2018-06-25T14:29:12.523Z,0.80
2018-06-25T14:31:41.865Z,0.80
2018-06-25T14:34:16.486Z,1.10
2018-06-25T14:36:45.970Z,1.00
2018-06-25T14:39:15.051Z,0.70
2018-06-25T14:41:44.383Z,0.80
2018-06-25T14:44:13.711Z,0.90
2018-06-25T14:46:43.039Z,0.90
2018-06-25T14:49:12.361Z,1.00
2018-06-25T14:51:41.455Z,0.80
2018-06-25T14:54:10.542Z,1.80
2018-06-25T14:56:39.874Z,1.10
2018-06-25T14:59:09.198Z,0.73
2018-06-25T15:01:38.546Z,0.70
2018-06-25T15:04:08.863Z,0.80
2018-06-25T15:06:38.205Z,0.90
2018-06-25T15:09:10.644Z,0.90
2018-06-25T15:11:39.975Z,0.80
2018-06-25T15:14:09.304Z,0.97
2018-06-25T15:16:38.632Z,0.97
2018-06-25T15:19:07.968Z,0.80
2018-06-25T15:21:37.287Z,0.80
2018-06-25T15:24:06.635Z,0.73
2018-06-25T15:26:35.954Z,0.97
2018-06-25T15:29:05.052Z,0.80
2018-06-25T15:31:34.166Z,1.00
2018-06-25T15:34:03.476Z,0.90
2018-06-25T15:36:32.788Z,0.90
2018-06-25T15:39:02.116Z,1.00
2018-06-25T15:41:31.444Z,1.00
2018-06-25T15:44:00.536Z,0.80
2018-06-25T15:46:29.606Z,0.90
2018-06-25T15:48:58.939Z,0.90
2018-06-25T15:51:28.243Z,0.80
2018-06-25T15:53:57.895Z,1.00
2018-06-25T15:56:26.999Z,0.90
2018-06-25T15:58:56.408Z,1.00
2018-06-25T16:01:25.734Z,0.90
2018-06-25T16:03:55.352Z,1.00
2018-06-25T16:06:24.430Z,1.10
2018-06-25T16:08:53.762Z,1.00
2018-06-25T16:11:23.084Z,1.00
2018-06-25T16:13:52.424Z,0.90
2018-06-25T16:16:21.751Z,1.07
2018-06-25T16:18:50.834Z,1.00
2018-06-25T16:21:20.151Z,1.00
2018-06-25T16:23:49.471Z,1.00
2018-06-25T16:26:18.795Z,1.00
2018-06-25T16:28:48.124Z,1.00
2018-06-25T16:31:17.456Z,1.00
2018-06-25T16:33:46.802Z,1.00
2018-06-25T16:36:16.121Z,0.90
2018-06-25T16:38:45.440Z,0.90
2018-06-25T16:41:14.761Z,1.00
2018-06-25T16:43:44.100Z,1.00
2018-06-25T16:46:13.479Z,0.88
2018-06-25T16:48:42.807Z,0.93
2018-06-25T16:51:12.123Z,0.93
2018-06-25T16:53:41.525Z,1.10
2018-06-25T16:56:10.862Z,0.97
2018-06-25T16:58:40.184Z,1.10
2018-06-25T17:01:09.523Z,1.07
2018-06-25T17:03:38.823Z,0.97
2018-06-25T17:06:09.373Z,0.80
2018-06-25T17:08:38.447Z,1.00
2018-06-25T17:11:07.769Z,0.93
2018-06-25T17:13:36.831Z,0.90
2018-06-25T17:16:06.204Z,0.83
2018-06-25T17:18:36.894Z,0.90
2018-06-25T17:21:06.284Z,0.97
2018-06-25T17:23:35.699Z,0.90
2018-06-25T17:26:05.173Z,0.90
2018-06-25T17:28:34.505Z,0.83
2018-06-25T17:31:03.595Z,0.90
2018-06-25T17:33:32.912Z,0.87
2018-06-25T17:36:01.990Z,0.80
2018-06-25T17:38:31.304Z,0.87
2018-06-25T17:41:00.379Z,0.80
2018-06-25T17:43:29.693Z,0.90
2018-06-25T17:45:58.791Z,0.60
2018-06-25T17:48:27.862Z,1.00
2018-06-25T17:50:57.176Z,0.77
2018-06-25T17:53:26.532Z,0.80
2018-06-25T17:55:55.857Z,0.90
2018-06-25T17:58:25.171Z,1.00
2018-06-25T18:00:54.496Z,1.00
2018-06-25T18:03:23.563Z,0.67
2018-06-25T18:05:52.960Z,1.00
2018-06-25T18:08:22.275Z,0.77
2018-06-25T18:10:51.360Z,0.80
2018-06-25T18:13:20.676Z,0.80
2018-06-25T18:15:49.752Z,0.80
2018-06-25T18:18:19.067Z,0.83
2018-06-25T18:20:48.200Z,1.10
2018-06-25T18:23:17.511Z,0.97
2018-06-25T18:25:46.859Z,1.00
2018-06-25T18:28:16.187Z,1.00
2018-06-25T18:30:45.252Z,1.07
2018-06-25T18:33:14.564Z,0.83
2018-06-25T18:35:43.891Z,0.93
2018-06-25T18:38:13.239Z,0.90
2018-06-25T18:40:42.558Z,1.00
2018-06-25T18:43:11.889Z,0.97
2018-06-25T18:45:41.219Z,0.90
2018-06-25T18:48:10.535Z,1.53
2018-06-25T18:50:39.853Z,0.80
2018-06-25T18:53:09.175Z,1.00
2018-06-25T18:55:38.253Z,0.80
2018-06-25T18:58:09.004Z,0.90
2018-06-25T19:00:38.078Z,0.97
2018-06-25T19:03:07.396Z,1.30
2018-06-25T19:05:36.513Z,1.00
2018-06-25T19:08:05.825Z,0.80
2018-06-25T19:10:35.133Z,0.80
2018-06-25T19:13:04.489Z,0.80
2018-06-25T19:15:33.555Z,0.90
2018-06-25T19:18:02.897Z,0.80
2018-06-25T19:20:32.216Z,0.90
2018-06-25T19:23:01.533Z,1.07
2018-06-25T19:25:30.861Z,1.07
2018-06-25T19:28:00.179Z,1.00
2018-06-25T19:30:29.256Z,1.00
2018-06-25T19:32:58.575Z,0.90
2018-06-25T19:35:27.638Z,1.10
2018-06-25T19:37:57.180Z,1.17
2018-06-25T19:40:26.317Z,1.35
2018-06-25T19:42:55.585Z,1.13
2018-06-25T19:45:24.891Z,1.00
2018-06-25T19:47:54.208Z,0.97
2018-06-25T19:50:23.555Z,1.00
2018-06-25T19:52:52.872Z,1.23
2018-06-25T19:55:21.939Z,1.10
2018-06-25T19:57:51.308Z,0.83
2018-06-25T20:00:20.628Z,1.00
2018-06-25T20:02:50.054Z,0.90
2018-06-25T20:05:19.285Z,1.03
2018-06-25T20:07:48.612Z,1.20
2018-06-25T20:10:17.929Z,0.90
2018-06-25T20:12:47.276Z,1.00
2018-06-25T20:15:16.414Z,1.20
2018-06-25T20:17:45.668Z,1.00
2018-06-25T20:20:14.743Z,1.03
2018-06-25T20:22:44.072Z,1.17
2018-06-25T20:25:13.396Z,1.20
2018-06-25T20:27:42.720Z,1.10
2018-06-25T20:30:12.031Z,0.97
2018-06-25T20:32:41.344Z,1.40
2018-06-25T20:35:10.712Z,1.07
2018-06-25T20:37:40.025Z,0.90
2018-06-25T20:40:09.349Z,1.00
2018-06-25T20:42:38.652Z,1.20
2018-06-25T20:45:07.988Z,1.07
2018-06-25T20:47:37.301Z,1.40
2018-06-25T20:50:06.653Z,1.50
2018-06-25T20:52:35.968Z,1.10
2018-06-25T20:55:05.435Z,1.00
2018-06-25T20:57:34.751Z,1.10
2018-06-25T21:00:04.281Z,1.00
2018-06-25T21:02:33.348Z,1.30
2018-06-25T21:05:02.766Z,1.13
2018-06-25T21:07:32.069Z,1.37
2018-06-25T21:10:01.159Z,1.47
2018-06-25T21:12:30.464Z,1.30
2018-06-25T21:14:59.543Z,1.33
2018-06-25T21:17:28.872Z,1.37
2018-06-25T21:19:58.209Z,1.30
2018-06-25T21:22:27.537Z,1.20
2018-06-25T21:24:56.857Z,1.00
2018-06-25T21:27:25.991Z,1.20
2018-06-25T21:29:55.311Z,1.33
2018-06-25T21:32:24.628Z,1.15
2018-06-25T21:34:53.944Z,1.03
2018-06-25T21:37:23.251Z,1.30
2018-06-25T21:39:52.577Z,1.47
2018-06-25T21:42:21.883Z,1.30
2018-06-25T21:44:51.210Z,1.00
2018-06-25T21:47:20.578Z,1.40
2018-06-25T21:49:49.854Z,1.10
2018-06-25T21:52:18.921Z,1.10
2018-06-25T21:54:48.255Z,1.40
2018-06-25T21:57:17.555Z,1.03
2018-06-25T21:59:46.884Z,1.13
2018-06-25T22:02:16.197Z,1.10
2018-06-25T22:04:45.523Z,1.00
2018-06-25T22:07:14.835Z,0.90
2018-06-25T22:09:44.233Z,0.93
2018-06-25T22:12:13.572Z,1.10
2018-06-25T22:14:42.929Z,1.00
2018-06-25T22:17:12.256Z,0.90
2018-06-25T22:19:41.559Z,1.00
2018-06-25T22:22:10.640Z,1.03
2018-06-25T22:24:39.959Z,1.20
2018-06-25T22:27:09.300Z,0.90
2018-06-25T22:29:38.607Z,1.10
2018-06-25T22:32:09.167Z,1.23
2018-06-25T22:34:38.484Z,1.10
2018-06-25T22:37:07.799Z,0.97
2018-06-25T22:39:37.104Z,1.00
2018-06-25T22:42:06.516Z,1.13
2018-06-25T22:44:35.836Z,1.00
2018-06-25T22:47:05.161Z,1.10
2018-06-25T22:49:34.460Z,1.15
2018-06-25T22:52:03.780Z,1.10
2018-06-25T22:54:32.839Z,1.00
2018-06-25T22:57:02.157Z,1.20
2018-06-25T22:59:31.463Z,1.03
2018-06-25T23:02:00.775Z,1.20
2018-06-25T23:04:30.079Z,1.30
2018-06-25T23:06:59.175Z,1.23
2018-06-25T23:09:28.488Z,1.20
2018-06-25T23:11:57.820Z,1.23
2018-06-25T23:14:27.139Z,1.20
2018-06-25T23:16:56.460Z,1.20
2018-06-25T23:19:25.786Z,1.20
2018-06-25T23:21:55.296Z,1.27
2018-06-25T23:24:24.609Z,1.10
2018-06-25T23:26:53.937Z,1.33
2018-06-25T23:29:23.243Z,1.17
2018-06-25T23:31:52.727Z,1.20
2018-06-25T23:34:22.031Z,1.27
2018-06-25T23:36:51.477Z,1.40
2018-06-25T23:39:20.792Z,1.27
2018-06-25T23:41:50.124Z,1.43
2018-06-25T23:44:19.437Z,1.33
2018-06-25T23:46:48.859Z,1.47
2018-06-25T23:49:18.163Z,1.33
2018-06-25T23:51:47.484Z,1.43
2018-06-25T23:54:16.555Z,1.37
2018-06-25T23:56:45.872Z,2.17
2018-06-25T23:59:15.180Z,1.87
